Historyczne dane pomiarowe

Dodano dane terminowe – wersja testowa.

Dane z okresu 1951-2019

Wersja bazy: 1.34 [2019-03-16, lista zmian], aktualizacja planowana na 2019-04-15

Dane meteo z obszaru Polski uzyskane na podstawie danych udostępnionych przez Instytut Meteorologii i Gospodarki Wodnej – Państwowy Instytut Badawczy.

 

Wybierz Datę:    

       

TemperaturaWilgotnośćZachmurzenieWiatrCiśnienieWidzialnośćZjawiska
 Data    tng td wb rh cc ccl cl cm ch dir g1 g2 mslp ppp      
1994-08-11 00:00:00 20.6--- 13.0 16.062wxwxwx4wx--1005.8 991.4 0.0---wx
1994-08-11 01:00:00 20.0--- 13.1 15.864wxwxwx4wx--1005.2 990.7----wx
1994-08-11 02:00:00 19.8--- 12.8 15.664wxwxwx4wx--1004.8 990.3----wx
1994-08-11 03:00:00 19.0--- 13.8 15.872wxwxwxwx3wx--1005.5 991.0----wx
1994-08-11 04:00:00 19.2--- 13.6 15.870wxwxwxwx6wx--1004.3 989.8----wx
1994-08-11 05:00:00 19.9--- 14.2 16.470wxwxwxwx3wx--1004.1 989.7----wx
1994-08-11 06:00:00 18.5--- 15.5 16.683wxwxwxwx2wx--1004.1 989.6 0.1---wx
1994-08-11 07:00:00 17.8--- 16.2 16.890wxwxwxwx1wx--1004.8 990.2----wxw1
1994-08-11 08:00:00 17.6--- 16.7 17.094wxwxwxwx1wx--1004.8 990.2----wxw1
1994-08-11 09:00:00 17.8--- 16.9 17.294wxwxwxwx1wx--1004.7 990.1----wxw1
1994-08-11 10:00:00 17.9--- 17.6 17.798wxwxwxwx4wx--1004.9 990.3----wxw1
1994-08-11 11:00:00 18.3--- 17.7 17.996wxwxwxwx4wx--1004.5 990.0----wx
1994-08-11 12:00:00 18.4--- 17.8 18.096wxwxwxwx2wx--1004.8 990.3 11.5---wxw1
1994-08-11 13:00:00 19.7--- 18.2 18.791wxwxwxwx5wx--1005.0 990.5----wxw1
1994-08-11 14:00:00 20.6--- 16.6 18.078wxwxwx6wx12-1005.2 990.8----wx
1994-08-11 15:00:00 20.7--- 16.2 17.875wxwxwxwx6wx11-1005.1 990.7----wxw1
1994-08-11 16:00:00 21.3--- 16.0 17.972wxwxwxwx9wx14-1005.0 990.6----wx
1994-08-11 17:00:00 21.0--- 15.3 17.470wxwxwxwx9wx14-1005.0 990.6----wx
1994-08-11 18:00:00 19.2--- 15.9 17.181wxwxwxwx7wx13-1005.4 990.9 0.0---wxw1
1994-08-11 19:00:00 18.1--- 15.0 16.282wxwxwx7wx13-1005.8 991.2----wx
1994-08-11 20:00:00 17.6--- 14.2 15.580wxwxwx6wx11-1005.8 991.2----wx
1994-08-11 21:00:00 17.6--- 13.8 15.378wxwxwx7wx12-1006.3 991.7----wx
1994-08-11 22:00:00 17.1--- 14.2 15.383wxwxwx5wx--1007.0 992.4----wx
1994-08-11 23:00:00 16.0--- 13.5 14.585wxwxwx4wx--1007.5 992.8----wx

 

Źródłem pochodzenia danych jest Instytut Meteorologii i Gospodarki Wodnej – Państwowy Instytut Badawczy. Dane Instytutu Meteorologii i Gospodarki Wodnej – Państwowego Instytutu Badawczego zostały przetworzone.

Dane źródłowe można odnaleźć na stronie https://dane.imgw.pl